sensor_id;sensor_type;location;lat;lon;timestamp;pressure;altitude;pressure_sealevel;temperature
73673;BMP280;61972;19.480;-99.240;2023-09-30T00:00:58;77556.09;;;29.63
73673;BMP280;61972;19.480;-99.240;2023-09-30T00:03:24;77557.19;;;29.64
73673;BMP280;61972;19.480;-99.240;2023-09-30T00:05:50;77565.09;;;29.64
73673;BMP280;61972;19.480;-99.240;2023-09-30T00:08:16;77571.34;;;29.62
73673;BMP280;61972;19.480;-99.240;2023-09-30T00:10:42;77582.44;;;29.63
73673;BMP280;61972;19.480;-99.240;2023-09-30T00:13:09;77585.06;;;29.63
73673;BMP280;61972;19.480;-99.240;2023-09-30T00:15:35;77584.53;;;29.62
73673;BMP280;61972;19.480;-99.240;2023-09-30T00:18:01;77585.63;;;29.63
73673;BMP280;61972;19.480;-99.240;2023-09-30T00:20:28;77592.97;;;29.63
73673;BMP280;61972;19.480;-99.240;2023-09-30T00:22:54;77596.69;;;29.64
73673;BMP280;61972;19.480;-99.240;2023-09-30T00:25:20;77604.06;;;29.63
73673;BMP280;61972;19.480;-99.240;2023-09-30T00:27:49;77613.63;;;29.65
73673;BMP280;61972;19.480;-99.240;2023-09-30T00:30:19;77613.63;;;29.65
73673;BMP280;61972;19.480;-99.240;2023-09-30T00:32:45;77610.97;;;29.65
73673;BMP280;61972;19.480;-99.240;2023-09-30T00:35:12;77622.63;;;29.66
73673;BMP280;61972;19.480;-99.240;2023-09-30T00:37:38;77622.63;;;29.66
73673;BMP280;61972;19.480;-99.240;2023-09-30T00:40:06;77629.00;;;29.67
73673;BMP280;61972;19.480;-99.240;2023-09-30T00:42:32;77627.91;;;29.66
73673;BMP280;61972;19.480;-99.240;2023-09-30T00:44:58;77633.72;;;29.66
73673;BMP280;61972;19.480;-99.240;2023-09-30T00:47:26;77644.78;;;29.67
73673;BMP280;61972;19.480;-99.240;2023-09-30T00:49:52;77640.63;;;29.68
73673;BMP280;61972;19.480;-99.240;2023-09-30T00:52:20;77650.63;;;29.67
73673;BMP280;61972;19.480;-99.240;2023-09-30T00:54:47;77650.63;;;29.67
73673;BMP280;61972;19.480;-99.240;2023-09-30T00:57:13;77655.88;;;29.67
73673;BMP280;61972;19.480;-99.240;2023-09-30T00:59:40;77660.03;;;29.66
73673;BMP280;61972;19.480;-99.240;2023-09-30T01:02:06;77654.78;;;29.66
73673;BMP280;61972;19.480;-99.240;2023-09-30T01:04:33;77657.84;;;29.64
73673;BMP280;61972;19.480;-99.240;2023-09-30T01:06:59;77661.00;;;29.65
73673;BMP280;61972;19.480;-99.240;2023-09-30T01:09:25;77661.59;;;29.65
73673;BMP280;61972;19.480;-99.240;2023-09-30T01:11:51;77665.31;;;29.66
73673;BMP280;61972;19.480;-99.240;2023-09-30T01:14:34;77672.66;;;29.66
73673;BMP280;61972;19.480;-99.240;2023-09-30T01:17:00;77670.03;;;29.66
73673;BMP280;61972;19.480;-99.240;2023-09-30T01:19:27;77671.69;;;29.67
73673;BMP280;61972;19.480;-99.240;2023-09-30T01:21:57;77675.84;;;29.66
73673;BMP280;61972;19.480;-99.240;2023-09-30T01:24:26;77682.78;;;29.68
73673;BMP280;61972;19.480;-99.240;2023-09-30T01:26:52;77690.25;;;29.70
73673;BMP280;61972;19.480;-99.240;2023-09-30T01:29:19;77689.16;;;29.69
73673;BMP280;61972;19.480;-99.240;2023-09-30T01:31:46;77693.31;;;29.68
73673;BMP280;61972;19.480;-99.240;2023-09-30T01:34:14;77697.06;;;29.69
73673;BMP280;61972;19.480;-99.240;2023-09-30T01:36:41;77691.22;;;29.68
73673;BMP280;61972;19.480;-99.240;2023-09-30T01:39:09;77703.84;;;29.68
73673;BMP280;61972;19.480;-99.240;2023-09-30T01:41:37;77701.22;;;29.68
73673;BMP280;61972;19.480;-99.240;2023-09-30T01:44:04;77700.66;;;29.67
73673;BMP280;61972;19.480;-99.240;2023-09-30T01:46:30;77705.94;;;29.67
73673;BMP280;61972;19.480;-99.240;2023-09-30T01:48:56;77708.56;;;29.67
73673;BMP280;61972;19.480;-99.240;2023-09-30T01:51:22;77705.38;;;29.67
73673;BMP280;61972;19.480;-99.240;2023-09-30T01:53:49;77707.44;;;29.66
73673;BMP280;61972;19.480;-99.240;2023-09-30T01:56:15;77717.97;;;29.66
73673;BMP280;61972;19.480;-99.240;2023-09-30T01:58:42;77724.22;;;29.65
73673;BMP280;61972;19.480;-99.240;2023-09-30T02:01:09;77732.13;;;29.65
73673;BMP280;61972;19.480;-99.240;2023-09-30T02:03:35;77735.75;;;29.63
73673;BMP280;61972;19.480;-99.240;2023-09-30T02:06:01;77739.47;;;29.64
73673;BMP280;61972;19.480;-99.240;2023-09-30T02:08:29;77735.19;;;29.63
73673;BMP280;61972;19.480;-99.240;2023-09-30T02:10:55;77729.91;;;29.63
73673;BMP280;61972;19.480;-99.240;2023-09-30T02:13:21;77739.91;;;29.62
73673;BMP280;61972;19.480;-99.240;2023-09-30T02:15:47;77739.34;;;29.62
73673;BMP280;61972;19.480;-99.240;2023-09-30T02:18:13;77741.41;;;29.61
73673;BMP280;61972;19.480;-99.240;2023-09-30T02:20:40;77746.13;;;29.61
73673;BMP280;61972;19.480;-99.240;2023-09-30T02:23:10;77749.75;;;29.59
73673;BMP280;61972;19.480;-99.240;2023-09-30T02:25:40;77758.22;;;29.59
73673;BMP280;61972;19.480;-99.240;2023-09-30T02:28:06;77770.25;;;29.58
73673;BMP280;61972;19.480;-99.240;2023-09-30T02:30:32;77777.03;;;29.57
73673;BMP280;61972;19.480;-99.240;2023-09-30T02:32:58;77784.41;;;29.57
73673;BMP280;61972;19.480;-99.240;2023-09-30T02:35:25;77786.47;;;29.56
73673;BMP280;61972;19.480;-99.240;2023-09-30T02:37:52;77785.38;;;29.55
73673;BMP280;61972;19.480;-99.240;2023-09-30T02:40:18;77792.16;;;29.54
73673;BMP280;61972;19.480;-99.240;2023-09-30T02:42:45;77794.78;;;29.54
73673;BMP280;61972;19.480;-99.240;2023-09-30T02:45:12;77799.53;;;29.54
73673;BMP280;61972;19.480;-99.240;2023-09-30T02:47:39;77798.94;;;29.53
73673;BMP280;61972;19.480;-99.240;2023-09-30T02:50:06;77799.53;;;29.54
73673;BMP280;61972;19.480;-99.240;2023-09-30T02:52:39;77804.22;;;29.53
73673;BMP280;61972;19.480;-99.240;2023-09-30T02:55:12;77817.38;;;29.53
73673;BMP280;61972;19.480;-99.240;2023-09-30T02:57:39;77813.09;;;29.52
73673;BMP280;61972;19.480;-99.240;2023-09-30T03:00:06;77818.34;;;29.52
73673;BMP280;61972;19.480;-99.240;2023-09-30T03:02:50;77817.78;;;29.51
73673;BMP280;61972;19.480;-99.240;2023-09-30T03:05:17;77825.69;;;29.51
73673;BMP280;61972;19.480;-99.240;2023-09-30T03:07:44;77832.50;;;29.50
73673;BMP280;61972;19.480;-99.240;2023-09-30T03:10:11;77828.75;;;29.49
73673;BMP280;61972;19.480;-99.240;2023-09-30T03:12:39;77836.63;;;29.49
73673;BMP280;61972;19.480;-99.240;2023-09-30T03:15:06;77835.53;;;29.48
73673;BMP280;61972;19.480;-99.240;2023-09-30T03:17:32;77839.72;;;29.47
73673;BMP280;61972;19.480;-99.240;2023-09-30T03:20:01;77835.38;;;29.46
73673;BMP280;61972;19.480;-99.240;2023-09-30T03:22:27;77838.59;;;29.46
73673;BMP280;61972;19.480;-99.240;2023-09-30T03:24:55;77841.66;;;29.44
73673;BMP280;61972;19.480;-99.240;2023-09-30T03:27:23;77852.19;;;29.44
73673;BMP280;61972;19.480;-99.240;2023-09-30T03:29:49;77848.44;;;29.43
73673;BMP280;61972;19.480;-99.240;2023-09-30T03:32:15;77853.69;;;29.43
73673;BMP280;61972;19.480;-99.240;2023-09-30T03:34:41;77853.13;;;29.43
73673;BMP280;61972;19.480;-99.240;2023-09-30T03:37:10;77845.66;;;29.40
73673;BMP280;61972;19.480;-99.240;2023-09-30T03:39:36;77846.63;;;29.39
73673;BMP280;61972;19.480;-99.240;2023-09-30T03:42:03;77849.25;;;29.39
73673;BMP280;61972;19.480;-99.240;2023-09-30T03:44:29;77852.28;;;29.37
73673;BMP280;61972;19.480;-99.240;2023-09-30T03:46:55;77861.31;;;29.38
73673;BMP280;61972;19.480;-99.240;2023-09-30T03:49:24;77856.47;;;29.36
73673;BMP280;61972;19.480;-99.240;2023-09-30T03:51:51;77869.63;;;29.36
73673;BMP280;61972;19.480;-99.240;2023-09-30T03:54:19;77864.22;;;29.33
73673;BMP280;61972;19.480;-99.240;2023-09-30T03:56:45;77867.41;;;29.34
73673;BMP280;61972;19.480;-99.240;2023-09-30T03:59:14;77865.75;;;29.32
73673;BMP280;61972;19.480;-99.240;2023-09-30T04:01:44;77870.47;;;29.32
73673;BMP280;61972;19.480;-99.240;2023-09-30T04:04:13;77867.25;;;29.31
73673;BMP280;61972;19.480;-99.240;2023-09-30T04:06:39;77869.88;;;29.31
73673;BMP280;61972;19.480;-99.240;2023-09-30T04:09:06;77865.59;;;29.30
73673;BMP280;61972;19.480;-99.240;2023-09-30T04:11:38;77862.97;;;29.30
73673;BMP280;61972;19.480;-99.240;2023-09-30T04:14:06;77860.75;;;29.28
73673;BMP280;61972;19.480;-99.240;2023-09-30T04:16:34;77861.72;;;29.26
73673;BMP280;61972;19.480;-99.240;2023-09-30T04:19:01;77873.19;;;29.25
73673;BMP280;61972;19.480;-99.240;2023-09-30T04:21:30;77875.28;;;29.24
73673;BMP280;61972;19.480;-99.240;2023-09-30T04:24:00;77879.44;;;29.23
73673;BMP280;61972;19.480;-99.240;2023-09-30T04:26:26;77871.94;;;29.21
73673;BMP280;61972;19.480;-99.240;2023-09-30T04:28:52;77877.06;;;29.18
73673;BMP280;61972;19.480;-99.240;2023-09-30T04:31:19;77877.06;;;29.18
73673;BMP280;61972;19.480;-99.240;2023-09-30T04:33:48;77873.75;;;29.15
73673;BMP280;61972;19.480;-99.240;2023-09-30T04:36:14;77877.91;;;29.14
73673;BMP280;61972;19.480;-99.240;2023-09-30T04:38:40;77886.75;;;29.13
73673;BMP280;61972;19.480;-99.240;2023-09-30T04:41:06;77881.91;;;29.11
73673;BMP280;61972;19.480;-99.240;2023-09-30T04:43:34;77885.50;;;29.09
73673;BMP280;61972;19.480;-99.240;2023-09-30T04:46:00;77891.19;;;29.07
73673;BMP280;61972;19.480;-99.240;2023-09-30T04:48:27;77892.69;;;29.06
73673;BMP280;61972;19.480;-99.240;2023-09-30T04:50:53;77894.63;;;29.03
73673;BMP280;61972;19.480;-99.240;2023-09-30T04:53:20;77890.91;;;29.02
73673;BMP280;61972;19.480;-99.240;2023-09-30T04:55:49;77899.75;;;29.00
73673;BMP280;61972;19.480;-99.240;2023-09-30T04:58:18;77898.09;;;28.99
73673;BMP280;61972;19.480;-99.240;2023-09-30T05:00:44;77896.97;;;28.98
73673;BMP280;61972;19.480;-99.240;2023-09-30T05:03:10;77896.28;;;28.95
73673;BMP280;61972;19.480;-99.240;2023-09-30T05:05:36;77896.69;;;28.93
73673;BMP280;61972;19.480;-99.240;2023-09-30T05:08:03;77906.09;;;28.92
73673;BMP280;61972;19.480;-99.240;2023-09-30T05:10:29;77899.72;;;28.91
73673;BMP280;61972;19.480;-99.240;2023-09-30T05:12:55;77892.78;;;28.89
73673;BMP280;61972;19.480;-99.240;2023-09-30T05:15:23;77890.59;;;28.87
73673;BMP280;61972;19.480;-99.240;2023-09-30T05:17:49;77886.28;;;28.86
73673;BMP280;61972;19.480;-99.240;2023-09-30T05:20:16;77887.25;;;28.84
73673;BMP280;61972;19.480;-99.240;2023-09-30T05:22:45;77890.81;;;28.82
73673;BMP280;61972;19.480;-99.240;2023-09-30T05:25:13;77895.00;;;28.81
73673;BMP280;61972;19.480;-99.240;2023-09-30T05:27:42;77906.47;;;28.80
73673;BMP280;61972;19.480;-99.240;2023-09-30T05:30:08;77908.97;;;28.77
73673;BMP280;61972;19.480;-99.240;2023-09-30T05:32:37;77912.53;;;28.76
73673;BMP280;61972;19.480;-99.240;2023-09-30T05:35:05;77908.25;;;28.74
73673;BMP280;61972;19.480;-99.240;2023-09-30T05:37:47;77908.66;;;28.72
73673;BMP280;61972;19.480;-99.240;2023-09-30T05:40:13;77912.25;;;28.71
73673;BMP280;61972;19.480;-99.240;2023-09-30T05:42:48;77912.66;;;28.69
73673;BMP280;61972;19.480;-99.240;2023-09-30T05:45:15;77912.66;;;28.69
73673;BMP280;61972;19.480;-99.240;2023-09-30T05:47:41;77915.69;;;28.67
73673;BMP280;61972;19.480;-99.240;2023-09-30T05:50:08;77910.84;;;28.64
73673;BMP280;61972;19.480;-99.240;2023-09-30T05:52:35;77923.44;;;28.64
73673;BMP280;61972;19.480;-99.240;2023-09-30T05:55:02;77916.50;;;28.62
73673;BMP280;61972;19.480;-99.240;2023-09-30T05:57:28;77920.09;;;28.61
73673;BMP280;61972;19.480;-99.240;2023-09-30T05:59:54;77914.28;;;28.60
73673;BMP280;61972;19.480;-99.240;2023-09-30T06:02:20;77916.22;;;28.57
73673;BMP280;61972;19.480;-99.240;2023-09-30T06:04:46;77913.00;;;28.57
73673;BMP280;61972;19.480;-99.240;2023-09-30T06:07:13;77920.38;;;28.56
73673;BMP280;61972;19.480;-99.240;2023-09-30T06:09:39;77909.28;;;28.56
73673;BMP280;61972;19.480;-99.240;2023-09-30T06:12:05;77902.94;;;28.55
73673;BMP280;61972;19.480;-99.240;2023-09-30T06:14:32;77914.41;;;28.53
73673;BMP280;61972;19.480;-99.240;2023-09-30T06:16:59;77911.78;;;28.53
73673;BMP280;61972;19.480;-99.240;2023-09-30T06:19:26;77918.00;;;28.52
73673;BMP280;61972;19.480;-99.240;2023-09-30T06:21:53;77913.69;;;28.50
73673;BMP280;61972;19.480;-99.240;2023-09-30T06:24:19;77915.19;;;28.49
73673;BMP280;61972;19.480;-99.240;2023-09-30T06:26:48;77915.59;;;28.47
73673;BMP280;61972;19.480;-99.240;2023-09-30T06:29:14;77915.59;;;28.47
73673;BMP280;61972;19.480;-99.240;2023-09-30T06:31:41;77917.13;;;28.46
73673;BMP280;61972;19.480;-99.240;2023-09-30T06:34:07;77912.81;;;28.44
73673;BMP280;61972;19.480;-99.240;2023-09-30T06:36:33;77916.97;;;28.43
73673;BMP280;61972;19.480;-99.240;2023-09-30T06:38:59;77912.13;;;28.41
73673;BMP280;61972;19.480;-99.240;2023-09-30T06:41:27;77908.41;;;28.40
73673;BMP280;61972;19.480;-99.240;2023-09-30T06:43:53;77910.47;;;28.40
73673;BMP280;61972;19.480;-99.240;2023-09-30T06:46:19;77910.31;;;28.37
73673;BMP280;61972;19.480;-99.240;2023-09-30T06:48:45;77909.75;;;28.37
73673;BMP280;61972;19.480;-99.240;2023-09-30T06:51:15;77902.25;;;28.35
73673;BMP280;61972;19.480;-99.240;2023-09-30T06:53:41;77906.97;;;28.34
73673;BMP280;61972;19.480;-99.240;2023-09-30T06:56:07;77900.06;;;28.33
73673;BMP280;61972;19.480;-99.240;2023-09-30T06:58:33;77902.09;;;28.32
73673;BMP280;61972;19.480;-99.240;2023-09-30T07:00:59;77898.94;;;28.32
73673;BMP280;61972;19.480;-99.240;2023-09-30T07:03:26;77885.66;;;28.29
73673;BMP280;61972;19.480;-99.240;2023-09-30T07:05:52;77885.06;;;28.29
73673;BMP280;61972;19.480;-99.240;2023-09-30T07:08:20;77873.47;;;28.27
73673;BMP280;61972;19.480;-99.240;2023-09-30T07:10:49;77880.81;;;28.27
73673;BMP280;61972;19.480;-99.240;2023-09-30T07:13:16;77889.81;;;28.28
73673;BMP280;61972;19.480;-99.240;2023-09-30T07:15:43;77890.91;;;28.29
73673;BMP280;61972;19.480;-99.240;2023-09-30T07:18:10;77886.75;;;28.30
73673;BMP280;61972;19.480;-99.240;2023-09-30T07:20:37;77883.16;;;28.32
73673;BMP280;61972;19.480;-99.240;2023-09-30T07:23:04;77879.03;;;28.33
73673;BMP280;61972;19.480;-99.240;2023-09-30T07:25:30;77887.06;;;28.35
73673;BMP280;61972;19.480;-99.240;2023-09-30T07:28:01;77882.50;;;28.38
73673;BMP280;61972;19.480;-99.240;2023-09-30T07:30:27;77870.22;;;28.44
73673;BMP280;61972;19.480;-99.240;2023-09-30T07:32:54;77869.56;;;28.51
73673;BMP280;61972;19.480;-99.240;2023-09-30T07:35:20;77875.81;;;28.59
73673;BMP280;61972;19.480;-99.240;2023-09-30T07:37:46;77868.66;;;28.72
73673;BMP280;61972;19.480;-99.240;2023-09-30T07:40:12;77865.94;;;28.89
73673;BMP280;61972;19.480;-99.240;2023-09-30T07:42:39;77871.25;;;29.08
73673;BMP280;61972;19.480;-99.240;2023-09-30T07:45:05;77865.59;;;29.30
73673;BMP280;61972;19.480;-99.240;2023-09-30T07:47:32;77859.53;;;29.53
73673;BMP280;61972;19.480;-99.240;2023-09-30T07:50:02;77863.53;;;29.79
73673;BMP280;61972;19.480;-99.240;2023-09-30T07:52:35;77859.22;;;30.07
73673;BMP280;61972;19.480;-99.240;2023-09-30T07:55:02;77855.81;;;30.33
73673;BMP280;61972;19.480;-99.240;2023-09-30T07:57:31;77856.69;;;30.61
73673;BMP280;61972;19.480;-99.240;2023-09-30T08:00:00;77855.50;;;30.89
73673;BMP280;61972;19.480;-99.240;2023-09-30T08:02:28;77855.88;;;31.19
73673;BMP280;61972;19.480;-99.240;2023-09-30T08:04:59;77855.16;;;31.47
73673;BMP280;61972;19.480;-99.240;2023-09-30T08:07:26;77849.56;;;31.74
73673;BMP280;61972;19.480;-99.240;2023-09-30T08:09:52;77853.38;;;32.00
73673;BMP280;61972;19.480;-99.240;2023-09-30T08:12:19;77850.25;;;32.24
73673;BMP280;61972;19.480;-99.240;2023-09-30T08:14:45;77856.69;;;32.49
73673;BMP280;61972;19.480;-99.240;2023-09-30T08:17:11;77841.38;;;32.75
73673;BMP280;61972;19.480;-99.240;2023-09-30T08:19:37;77832.31;;;32.98
73673;BMP280;61972;19.480;-99.240;2023-09-30T08:22:03;77832.28;;;33.23
73673;BMP280;61972;19.480;-99.240;2023-09-30T08:24:29;77828.50;;;33.46
73673;BMP280;61972;19.480;-99.240;2023-09-30T08:26:55;77826.66;;;33.67
73673;BMP280;61972;19.480;-99.240;2023-09-30T08:29:22;77825.72;;;33.83
73673;BMP280;61972;19.480;-99.240;2023-09-30T08:31:49;77828.44;;;33.98
73673;BMP280;61972;19.480;-99.240;2023-09-30T08:34:18;77832.69;;;34.12
73673;BMP280;61972;19.480;-99.240;2023-09-30T08:36:46;77838.38;;;34.22
73673;BMP280;61972;19.480;-99.240;2023-09-30T08:39:12;77838.22;;;34.32
73673;BMP280;61972;19.480;-99.240;2023-09-30T08:41:39;77838.59;;;34.42
73673;BMP280;61972;19.480;-99.240;2023-09-30T08:44:05;77835.34;;;34.54
73673;BMP280;61972;19.480;-99.240;2023-09-30T08:46:33;77838.38;;;34.64
73673;BMP280;61972;19.480;-99.240;2023-09-30T08:49:04;77840.38;;;34.76
73673;BMP280;61972;19.480;-99.240;2023-09-30T08:51:31;77840.22;;;34.86
73673;BMP280;61972;19.480;-99.240;2023-09-30T08:53:59;77837.81;;;34.94
73673;BMP280;61972;19.480;-99.240;2023-09-30T08:56:28;77837.00;;;35.00
73673;BMP280;61972;19.480;-99.240;2023-09-30T08:58:58;77832.41;;;35.06
73673;BMP280;61972;19.480;-99.240;2023-09-30T09:01:28;77826.75;;;35.11
73673;BMP280;61972;19.480;-99.240;2023-09-30T09:03:56;77826.84;;;35.13
73673;BMP280;61972;19.480;-99.240;2023-09-30T09:06:23;77821.72;;;35.18
73673;BMP280;61972;19.480;-99.240;2023-09-30T09:08:50;77821.41;;;35.25
73673;BMP280;61972;19.480;-99.240;2023-09-30T09:11:17;77816.84;;;35.31
73673;BMP280;61972;19.480;-99.240;2023-09-30T09:13:50;77813.91;;;35.38
73673;BMP280;61972;19.480;-99.240;2023-09-30T09:16:19;77819.91;;;35.44
73673;BMP280;61972;19.480;-99.240;2023-09-30T09:18:45;77821.09;;;35.48
73673;BMP280;61972;19.480;-99.240;2023-09-30T09:21:18;77820.19;;;35.52
73673;BMP280;61972;19.480;-99.240;2023-09-30T09:23:47;77817.03;;;35.54
73673;BMP280;61972;19.480;-99.240;2023-09-30T09:26:30;77820.81;;;35.55
73673;BMP280;61972;19.480;-99.240;2023-09-30T09:29:03;77827.78;;;35.56
73673;BMP280;61972;19.480;-99.240;2023-09-30T09:31:34;77819.34;;;35.58
73673;BMP280;61972;19.480;-99.240;2023-09-30T09:34:13;77813.56;;;35.60
73673;BMP280;61972;19.480;-99.240;2023-09-30T09:36:44;77811.06;;;35.65
73673;BMP280;61972;19.480;-99.240;2023-09-30T09:39:11;77809.56;;;35.69
73673;BMP280;61972;19.480;-99.240;2023-09-30T09:41:54;77817.09;;;35.71
73673;BMP280;61972;19.480;-99.240;2023-09-30T09:44:24;77817.72;;;35.74
73673;BMP280;61972;19.480;-99.240;2023-09-30T09:46:53;77821.50;;;35.75
73673;BMP280;61972;19.480;-99.240;2023-09-30T09:49:20;77816.19;;;35.75
73673;BMP280;61972;19.480;-99.240;2023-09-30T09:51:48;77815.06;;;35.74
73673;BMP280;61972;19.480;-99.240;2023-09-30T09:54:15;77808.66;;;35.73
73673;BMP280;61972;19.480;-99.240;2023-09-30T09:56:44;77811.31;;;35.73
73673;BMP280;61972;19.480;-99.240;2023-09-30T09:59:12;77813.41;;;35.73
73673;BMP280;61972;19.480;-99.240;2023-09-30T10:01:40;77809.75;;;35.74
73673;BMP280;61972;19.480;-99.240;2023-09-30T10:04:08;77811.31;;;35.73
73673;BMP280;61972;19.480;-99.240;2023-09-30T10:06:35;77811.78;;;35.71
73673;BMP280;61972;19.480;-99.240;2023-09-30T10:09:09;77812.63;;;35.64
73673;BMP280;61972;19.480;-99.240;2023-09-30T10:11:38;77812.44;;;35.59
73673;BMP280;61972;19.480;-99.240;2023-09-30T10:14:05;77813.28;;;35.53
73673;BMP280;61972;19.480;-99.240;2023-09-30T10:19:36;77806.66;;;35.29
73673;BMP280;61972;19.480;-99.240;2023-09-30T10:24:55;77799.91;;;35.03
73673;BMP280;61972;19.480;-99.240;2023-09-30T10:30:06;77799.75;;;34.83
73673;BMP280;61972;19.480;-99.240;2023-09-30T10:40:49;77798.63;;;34.82
73673;BMP280;61972;19.480;-99.240;2023-09-30T10:43:40;77806.59;;;34.82
73673;BMP280;61972;19.480;-99.240;2023-09-30T10:48:54;77801.00;;;34.89
73673;BMP280;61972;19.480;-99.240;2023-09-30T10:51:23;77806.97;;;34.92
73673;BMP280;61972;19.480;-99.240;2023-09-30T10:53:51;77807.63;;;34.95
73673;BMP280;61972;19.480;-99.240;2023-09-30T10:56:20;77816.84;;;35.01
73673;BMP280;61972;19.480;-99.240;2023-09-30T10:58:51;77817.03;;;35.07
73673;BMP280;61972;19.480;-99.240;2023-09-30T11:01:22;77813.00;;;35.13
73673;BMP280;61972;19.480;-99.240;2023-09-30T11:03:49;77821.22;;;35.20
73673;BMP280;61972;19.480;-99.240;2023-09-30T11:06:20;77820.88;;;35.25
73673;BMP280;61972;19.480;-99.240;2023-09-30T11:08:53;77823.63;;;35.28
73673;BMP280;61972;19.480;-99.240;2023-09-30T11:14:01;77832.31;;;35.33
73673;BMP280;61972;19.480;-99.240;2023-09-30T11:16:30;77833.41;;;35.34
73673;BMP280;61972;19.480;-99.240;2023-09-30T11:18:56;77828.75;;;35.37
73673;BMP280;61972;19.480;-99.240;2023-09-30T11:21:22;77826.72;;;35.40
73673;BMP280;61972;19.480;-99.240;2023-09-30T11:23:48;77830.00;;;35.43
73673;BMP280;61972;19.480;-99.240;2023-09-30T11:26:14;77834.94;;;35.48
73673;BMP280;61972;19.480;-99.240;2023-09-30T11:28:42;77829.63;;;35.48
73673;BMP280;61972;19.480;-99.240;2023-09-30T11:31:13;77833.66;;;35.42
73673;BMP280;61972;19.480;-99.240;2023-09-30T11:34:07;77832.59;;;35.26
73673;BMP280;61972;19.480;-99.240;2023-09-30T11:36:41;77839.56;;;35.13
73673;BMP280;61972;19.480;-99.240;2023-09-30T11:39:27;77834.09;;;34.93
73673;BMP280;61972;19.480;-99.240;2023-09-30T11:41:54;77842.47;;;34.76
73673;BMP280;61972;19.480;-99.240;2023-09-30T11:44:23;77845.97;;;34.54
73673;BMP280;61972;19.480;-99.240;2023-09-30T11:46:54;77848.81;;;34.32
73673;BMP280;61972;19.480;-99.240;2023-09-30T11:49:40;77856.25;;;34.04
73673;BMP280;61972;19.480;-99.240;2023-09-30T11:52:13;77847.19;;;33.76
73673;BMP280;61972;19.480;-99.240;2023-09-30T11:54:44;77843.94;;;33.49
73673;BMP280;61972;19.480;-99.240;2023-09-30T11:57:15;77853.28;;;33.18
73673;BMP280;61972;19.480;-99.240;2023-09-30T11:59:43;77852.63;;;32.90
73673;BMP280;61972;19.480;-99.240;2023-09-30T12:02:11;77855.16;;;32.63
73673;BMP280;61972;19.480;-99.240;2023-09-30T12:04:38;77863.94;;;32.34
73673;BMP280;61972;19.480;-99.240;2023-09-30T12:07:05;77862.22;;;32.08
73673;BMP280;61972;19.480;-99.240;2023-09-30T12:09:35;77867.44;;;31.83
73673;BMP280;61972;19.480;-99.240;2023-09-30T12:12:03;77871.75;;;31.63
73673;BMP280;61972;19.480;-99.240;2023-09-30T12:14:30;77876.06;;;31.42
73673;BMP280;61972;19.480;-99.240;2023-09-30T12:16:57;77879.88;;;31.24
73673;BMP280;61972;19.480;-99.240;2023-09-30T12:19:23;77881.78;;;31.08
73673;BMP280;61972;19.480;-99.240;2023-09-30T12:21:50;77884.63;;;30.91
73673;BMP280;61972;19.480;-99.240;2023-09-30T12:24:18;77875.94;;;30.76
73673;BMP280;61972;19.480;-99.240;2023-09-30T12:26:48;77873.63;;;30.62
73673;BMP280;61972;19.480;-99.240;2023-09-30T12:29:19;77874.53;;;30.48
73673;BMP280;61972;19.480;-99.240;2023-09-30T12:31:45;77877.59;;;30.36
73673;BMP280;61972;19.480;-99.240;2023-09-30T12:34:15;77878.59;;;30.25
73673;BMP280;61972;19.480;-99.240;2023-09-30T12:36:42;77889.59;;;30.13
73673;BMP280;61972;19.480;-99.240;2023-09-30T12:39:09;77887.50;;;30.04
73673;BMP280;61972;19.480;-99.240;2023-09-30T12:41:42;77885.44;;;29.94
73673;BMP280;61972;19.480;-99.240;2023-09-30T12:44:09;77889.75;;;29.86
73673;BMP280;61972;19.480;-99.240;2023-09-30T12:46:35;77889.16;;;29.76
73673;BMP280;61972;19.480;-99.240;2023-09-30T12:49:03;77892.34;;;29.67
73673;BMP280;61972;19.480;-99.240;2023-09-30T12:51:30;77899.84;;;29.59
73673;BMP280;61972;19.480;-99.240;2023-09-30T12:53:56;77899.97;;;29.52
73673;BMP280;61972;19.480;-99.240;2023-09-30T12:56:23;77901.78;;;29.46
73673;BMP280;61972;19.480;-99.240;2023-09-30T12:58:50;77907.19;;;29.39
73673;BMP280;61972;19.480;-99.240;2023-09-30T13:01:16;77904.69;;;29.32
73673;BMP280;61972;19.480;-99.240;2023-09-30T13:03:44;77905.91;;;29.26
73673;BMP280;61972;19.480;-99.240;2023-09-30T13:06:10;77905.63;;;29.20
73673;BMP280;61972;19.480;-99.240;2023-09-30T13:08:37;77907.94;;;29.15
73673;BMP280;61972;19.480;-99.240;2023-09-30T13:11:03;77902.41;;;29.10
73673;BMP280;61972;19.480;-99.240;2023-09-30T13:13:30;77907.94;;;29.06
73673;BMP280;61972;19.480;-99.240;2023-09-30T13:15:59;77909.72;;;29.00
73673;BMP280;61972;19.480;-99.240;2023-09-30T13:18:25;77921.06;;;28.96
73673;BMP280;61972;19.480;-99.240;2023-09-30T13:20:52;77921.88;;;28.92
73673;BMP280;61972;19.480;-99.240;2023-09-30T13:23:18;77922.69;;;28.88
73673;BMP280;61972;19.480;-99.240;2023-09-30T13:25:45;77923.50;;;28.83
73673;BMP280;61972;19.480;-99.240;2023-09-30T13:28:11;77928.09;;;28.80
73673;BMP280;61972;19.480;-99.240;2023-09-30T13:30:37;77934.16;;;28.76
73673;BMP280;61972;19.480;-99.240;2023-09-30T13:33:04;77931.22;;;28.71
73673;BMP280;61972;19.480;-99.240;2023-09-30T13:35:31;77927.91;;;28.68
73673;BMP280;61972;19.480;-99.240;2023-09-30T13:37:57;77928.69;;;28.64
73673;BMP280;61972;19.480;-99.240;2023-09-30T13:40:24;77930.06;;;28.60
73673;BMP280;61972;19.480;-99.240;2023-09-30T13:42:50;77938.38;;;28.58
73673;BMP280;61972;19.480;-99.240;2023-09-30T13:45:16;77939.72;;;28.55
73673;BMP280;61972;19.480;-99.240;2023-09-30T13:47:43;77942.78;;;28.53
73673;BMP280;61972;19.480;-99.240;2023-09-30T13:50:09;77944.69;;;28.50
73673;BMP280;61972;19.480;-99.240;2023-09-30T13:52:35;77945.47;;;28.45
73673;BMP280;61972;19.480;-99.240;2023-09-30T13:55:02;77943.25;;;28.43
73673;BMP280;61972;19.480;-99.240;2023-09-30T13:57:31;77955.13;;;28.40
73673;BMP280;61972;19.480;-99.240;2023-09-30T13:59:58;77958.72;;;28.38
73673;BMP280;61972;19.480;-99.240;2023-09-30T14:02:24;77954.84;;;28.35
73673;BMP280;61972;19.480;-99.240;2023-09-30T14:04:54;77955.78;;;28.33
73673;BMP280;61972;19.480;-99.240;2023-09-30T14:07:20;77948.31;;;28.31
73673;BMP280;61972;19.480;-99.240;2023-09-30T14:09:46;77960.34;;;28.30